首页
METAR-TAF:

METAR-TAF

机场 :

堪薩斯城, 密蘇里州, 美国

纬度: 39-17-50N, 经度: 094-43-50W, 海拔: 312米

当前天气观测

该预报发布于39分钟前的16:53 UTC
风速7节,风向西转西北
温度 13°C
湿度 54%
气压 1015 hPa
能見度: 16.1公里
散云层高于25000英尺

METAR: KMCI 191653Z 30007KT 10SM SCT250 13/04 A2996 RMK AO2 SLP146 T01280044

时间: 11:32 (17:32 UTC)

预报

该预报发布于7分钟前的17:25 UTC
预报有效从19日的 18点(UTC)到 20日的 18点(UTC)
风速7节,风向西转西北
能見度: 10公里
少量云层高于25000英尺
从 20日的 0000点(UTC)
风速6节,风向东转东南
能見度: 10公里
散云层高于25000英尺
从 20日的 1700点(UTC)
风速12节,风向南转南东,有时为22节阵风
能見度: 10公里
多云层高于25000英尺

TAF: KMCI 191725Z 1918/2018 30007KT P6SM FEW250 FM200000 12006KT P6SM SCT250 FM201700 15012G22KT P6SM BKN250

超过4000个机场的气象观测和天气预报(METAR&TAF报告)。

可查询的气象台以黄色和红色小点在地图上表示。

将鼠标移到小点上方,可查看气象台名称。

然后点击查看天气观测和预报。

如需切换地图:点击带黑十字的绿色按钮放大地图;点击带横线的绿色按钮缩小地图;或者点击绿色箭头查看邻近地区的地图。


METAR-TAF: